Time;durP1;ratioP1;P1;durP2;ratioP2;P2;SDS_P1;SDS_P2;PMS_P1;PMS_P2;Temp;Humidity;BMP_temperature;BMP_pressure;BME280_temperature;BME280_humidity;BME280_pressure;Samples;Min_cycle;Max_cycle;Signal;HPM_P1;HPM_P2
2021/04/16 00:00:52;;;;;;;9.82;2.53;;;21.50;56.80;;;;;;5095557;28;20027;-61
2021/04/16 00:03:18;;;;;;;7.95;2.55;;;21.50;56.80;;;;;;5077538;28;20024;-62
2021/04/16 00:05:45;;;;;;;6.50;2.72;;;21.50;56.80;;;;;;5095284;28;20028;-62
2021/04/16 00:08:15;;;;;;;6.13;2.42;;;21.40;56.80;;;;;;5095687;28;20026;-61
2021/04/16 00:10:45;;;;;;;9.13;2.65;;;21.50;56.90;;;;;;5095268;28;20024;-61
2021/04/16 00:13:14;;;;;;;6.23;2.33;;;21.40;56.80;;;;;;5077181;28;20079;-61
2021/04/16 00:15:41;;;;;;;7.20;2.40;;;21.40;56.80;;;;;;5095671;28;20032;-62
2021/04/16 00:18:10;;;;;;;9.27;2.45;;;21.40;56.80;;;;;;5095111;28;20028;-62
2021/04/16 00:20:37;;;;;;;4.60;1.90;;;21.40;56.80;;;;;;5077354;28;20469;-62
2021/04/16 00:23:04;;;;;;;4.35;2.35;;;21.40;56.80;;;;;;5095194;28;20401;-62
2021/04/16 00:25:32;;;;;;;6.72;2.42;;;21.40;56.80;;;;;;5095408;28;20539;-62
2021/04/16 00:27:59;;;;;;;9.13;2.95;;;21.40;56.80;;;;;;5095129;28;20095;-62
2021/04/16 00:30:29;;;;;;;6.57;2.05;;;21.40;56.70;;;;;;5095315;28;20036;-62
2021/04/16 00:32:55;;;;;;;7.07;2.40;;;21.40;56.80;;;;;;5094789;28;20080;-62
2021/04/16 00:35:21;;;;;;;6.05;2.40;;;21.40;56.80;;;;;;5095720;28;20097;-62
2021/04/16 00:37:47;;;;;;;9.45;3.17;;;21.40;56.80;;;;;;5094823;28;20107;-62
2021/04/16 00:40:21;;;;;;;9.73;2.78;;;21.40;56.80;;;;;;5094655;28;20032;-62
2021/04/16 00:42:53;;;;;;;8.68;2.25;;;21.30;56.80;;;;;;5094799;28;20035;-62
2021/04/16 00:45:19;;;;;;;8.50;2.42;;;21.40;56.80;;;;;;5094565;28;20031;-62
2021/04/16 00:47:45;;;;;;;8.02;2.30;;;21.40;56.80;;;;;;5094678;28;20020;-62
2021/04/16 00:50:20;;;;;;;10.18;2.53;;;21.40;56.80;;;;;;5076483;28;20047;-62
2021/04/16 00:52:47;;;;;;;11.85;3.10;;;21.30;56.90;;;;;;5094919;28;20355;-62
2021/04/16 00:55:14;;;;;;;6.88;2.50;;;21.30;56.90;;;;;;5094333;28;20024;-62
2021/04/16 00:57:40;;;;;;;7.65;2.53;;;21.40;56.90;;;;;;5094644;28;20074;-62
2021/04/16 01:00:11;;;;;;;7.95;2.65;;;21.30;56.90;;;;;;5094621;28;20032;-62
2021/04/16 01:02:37;;;;;;;11.77;2.28;;;21.30;56.90;;;;;;5075979;28;20059;-61
2021/04/16 01:05:05;;;;;;;7.40;2.30;;;21.40;56.90;;;;;;5094570;28;20441;-61
2021/04/16 01:07:32;;;;;;;9.38;2.63;;;21.30;56.90;;;;;;5094171;28;20660;-61
2021/04/16 01:09:58;;;;;;;7.57;2.92;;;21.30;56.90;;;;;;5094203;28;20054;-61
2021/04/16 01:12:24;;;;;;;8.48;2.40;;;21.30;56.90;;;;;;5094332;28;20059;-56
2021/04/16 01:14:57;;;;;;;7.65;2.20;;;21.30;56.80;;;;;;5076238;28;20066;-56
2021/04/16 01:17:24;;;;;;;7.57;2.97;;;21.30;56.80;;;;;;5094205;28;20474;-56
2021/04/16 01:19:53;;;;;;;6.72;2.67;;;21.30;56.90;;;;;;5094467;28;20377;-56
2021/04/16 01:22:33;;;;;;;15.75;2.83;;;21.30;56.90;;;;;;5094055;28;20024;-56
2021/04/16 01:24:59;;;;;;;7.15;2.97;;;21.30;56.90;;;;;;5094288;28;20129;-56
2021/04/16 01:27:27;;;;;;;8.65;2.65;;;21.30;56.90;;;;;;5075881;28;20036;-56
2021/04/16 01:29:54;;;;;;;5.68;2.50;;;21.30;56.90;;;;;;5094016;28;20044;-56
2021/04/16 01:32:24;;;;;;;10.77;2.65;;;21.30;56.90;;;;;;5068899;28;20044;-56
2021/04/16 01:34:50;;;;;;;;;;;21.30;57.00;;;;;;5074052;28;20044;-56
2021/04/16 01:37:17;;;;;;;8.93;2.83;;;21.30;57.10;;;;;;5074043;28;19916;-58
2021/04/16 01:39:43;;;;;;;8.65;2.67;;;21.40;56.80;;;;;;5071810;28;20052;-56
2021/04/16 01:42:09;;;;;;;8.23;2.47;;;21.40;56.90;;;;;;5073627;28;20474;-56
2021/04/16 01:44:35;;;;;;;6.75;3.13;;;21.40;56.90;;;;;;5073360;28;20031;-57
2021/04/16 01:47:07;;;;;;;7.15;3.28;;;21.30;57.00;;;;;;5055912;28;20028;-56
2021/04/16 01:49:36;;;;;;;11.00;2.97;;;21.30;57.10;;;;;;5073282;28;20052;-56
2021/04/16 01:52:03;;;;;;;7.82;2.75;;;21.30;57.10;;;;;;5073705;28;20421;-56
2021/04/16 01:54:34;;;;;;;8.43;3.85;;;21.30;57.10;;;;;;5055186;28;20082;-56
2021/04/16 01:57:04;;;;;;;8.35;2.50;;;21.30;57.20;;;;;;5055744;28;20029;-56
2021/04/16 01:59:34;;;;;;;6.22;2.72;;;21.30;57.10;;;;;;5072721;28;20130;-56
2021/04/16 02:02:01;;;;;;;8.82;2.58;;;21.30;57.10;;;;;;5054520;28;20078;-56
2021/04/16 02:04:27;;;;;;;7.25;2.80;;;21.30;57.10;;;;;;5072305;28;20394;-56
2021/04/16 02:06:53;;;;;;;8.80;2.70;;;21.30;57.10;;;;;;5072617;28;20359;-56
2021/04/16 02:09:23;;;;;;;8.32;2.88;;;21.30;57.10;;;;;;5072611;28;20028;-57
2021/04/16 02:11:50;;;;;;;12.07;2.50;;;21.30;57.20;;;;;;5072613;28;20029;-56
2021/04/16 02:14:19;;;;;;;5.85;1.95;;;21.30;57.10;;;;;;5071797;28;20608;-56
2021/04/16 02:16:47;;;;;;;7.90;2.20;;;21.30;57.10;;;;;;5072630;28;20069;-56
2021/04/16 02:19:14;;;;;;;9.40;2.80;;;21.30;57.10;;;;;;5055026;28;20082;-57
2021/04/16 02:21:42;;;;;;;7.28;2.40;;;21.30;57.10;;;;;;5072091;28;20032;-56
2021/04/16 02:24:09;;;;;;;8.52;2.47;;;21.30;57.20;;;;;;5070014;28;20032;-56
2021/04/16 02:26:36;;;;;;;8.40;2.92;;;21.30;57.10;;;;;;5070285;28;20060;-56
2021/04/16 02:29:04;;;;;;;5.85;2.95;;;21.30;57.10;;;;;;5070190;28;20093;-56
2021/04/16 02:31:30;;;;;;;8.43;2.38;;;21.30;57.10;;;;;;5052083;28;20054;-56
2021/04/16 02:33:56;;;;;;;8.13;2.65;;;21.30;57.10;;;;;;5089896;28;20096;-56
2021/04/16 02:36:24;;;;;;;4.63;2.30;;;21.30;57.10;;;;;;5071364;28;20032;-56
2021/04/16 02:38:52;;;;;;;11.82;2.30;;;21.30;57.10;;;;;;5090425;28;20058;-56
2021/04/16 02:41:18;;;;;;;6.43;2.60;;;21.30;57.10;;;;;;5064924;28;20032;-56
2021/04/16 02:43:44;;;;;;;12.68;3.15;;;21.30;57.00;;;;;;5072754;28;20394;-56
2021/04/16 02:46:10;;;;;;;8.05;2.53;;;21.30;57.00;;;;;;5080836;28;20102;-56
2021/04/16 02:48:36;;;;;;;11.32;2.60;;;21.30;57.10;;;;;;5093329;28;20450;-56
2021/04/16 02:51:03;;;;;;;7.90;2.60;;;21.30;57.00;;;;;;5086177;28;20433;-56
2021/04/16 02:53:29;;;;;;;8.73;2.75;;;21.30;57.00;;;;;;5072948;28;20029;-56
2021/04/16 02:55:55;;;;;;;7.60;2.38;;;21.30;57.00;;;;;;5077091;28;20049;-57
2021/04/16 02:58:20;;;;;;;9.30;3.13;;;21.30;57.00;;;;;;5090781;28;20017;-56
2021/04/16 03:00:46;;;;;;;4.55;2.50;;;21.30;57.00;;;;;;5072547;28;20528;-56
2021/04/16 03:03:12;;;;;;;10.68;2.75;;;21.30;56.90;;;;;;5073014;28;20021;-56
2021/04/16 03:05:38;;;;;;;6.25;2.28;;;21.30;57.00;;;;;;5074500;28;20040;-57
2021/04/16 03:08:05;;;;;;;7.82;2.97;;;21.30;57.00;;;;;;5093085;28;20104;-57
2021/04/16 03:10:35;;;;;;;6.82;2.63;;;21.30;56.90;;;;;;5073525;28;20056;-57
2021/04/16 03:13:01;;;;;;;6.70;2.42;;;21.30;56.90;;;;;;5072762;28;20033;-56
2021/04/16 03:15:27;;;;;;;4.97;2.30;;;21.30;56.90;;;;;;5072539;28;20481;-56
2021/04/16 03:17:53;;;;;;;7.38;2.55;;;21.30;56.80;;;;;;5072011;28;20029;-57
2021/04/16 03:20:21;;;;;;;6.80;2.65;;;21.30;56.80;;;;;;5088563;28;20024;-56
2021/04/16 03:22:48;;;;;;;7.20;2.65;;;21.30;56.90;;;;;;5092631;28;20454;-57
2021/04/16 03:25:15;;;;;;;9.90;3.00;;;21.30;56.90;;;;;;5093829;28;20028;-57
2021/04/16 03:27:41;;;;;;;7.07;2.63;;;21.30;56.80;;;;;;5081821;28;20029;-57
2021/04/16 03:30:11;;;;;;;7.93;2.88;;;21.30;56.80;;;;;;5056207;28;20029;-56
2021/04/16 03:32:37;;;;;;;12.40;2.70;;;21.30;57.00;;;;;;5079689;28;20051;-57
2021/04/16 03:35:05;;;;;;;5.03;1.90;;;21.40;56.80;;;;;;5096487;28;20778;-57
2021/04/16 03:37:31;;;;;;;7.88;3.00;;;21.40;56.80;;;;;;5095670;28;20481;-56
2021/04/16 03:39:57;;;;;;;7.28;2.92;;;21.40;57.40;;;;;;5096473;28;20028;-57
2021/04/16 03:42:23;;;;;;;6.40;2.80;;;21.40;56.80;;;;;;5087236;28;20035;-56
2021/04/16 03:44:49;;;;;;;8.10;3.58;;;21.40;56.80;;;;;;5076062;28;20378;-57
2021/04/16 03:47:16;;;;;;;8.25;3.45;;;21.40;56.80;;;;;;5076315;28;20031;-57
2021/04/16 03:49:44;;;;;;;9.30;2.60;;;21.40;56.70;;;;;;5076077;28;20528;-57
2021/04/16 03:52:10;;;;;;;6.50;2.42;;;21.40;56.70;;;;;;5077172;28;20031;-56
2021/04/16 03:54:36;;;;;;;7.97;3.10;;;21.40;56.70;;;;;;5075748;28;20097;-56
2021/04/16 03:57:03;;;;;;;10.32;3.78;;;21.40;56.80;;;;;;5076320;28;20466;-57
2021/04/16 03:59:29;;;;;;;9.50;3.15;;;21.40;56.80;;;;;;5075692;28;20074;-57
2021/04/16 04:01:55;;;;;;;5.93;2.80;;;21.40;56.80;;;;;;5076983;28;20107;-56
2021/04/16 04:04:22;;;;;;;6.65;2.33;;;21.40;56.80;;;;;;5095668;28;20028;-56
2021/04/16 04:06:50;;;;;;;8.60;2.72;;;21.40;57.10;;;;;;5095719;28;20381;-56
2021/04/16 04:09:17;;;;;;;6.57;2.95;;;21.40;56.90;;;;;;5055622;28;20175;-57
2021/04/16 04:11:43;;;;;;;6.57;2.95;;;21.40;56.80;;;;;;5054507;28;20056;-56
2021/04/16 04:14:09;;;;;;;5.75;2.58;;;21.40;56.90;;;;;;5074675;28;20036;-56
2021/04/16 04:16:48;;;;;;;9.23;3.63;;;21.40;56.80;;;;;;5094610;28;20043;-57
2021/04/16 04:19:15;;;;;;;5.55;2.28;;;21.40;56.90;;;;;;5074417;28;20105;-57
2021/04/16 04:21:41;;;;;;;6.38;3.10;;;21.40;56.90;;;;;;5087706;28;20110;-56
2021/04/16 04:24:07;;;;;;;9.05;2.85;;;21.40;56.90;;;;;;5075663;28;20505;-57
2021/04/16 04:26:33;;;;;;;6.53;2.60;;;21.40;56.90;;;;;;5075536;28;20056;-56
2021/04/16 04:28:59;;;;;;;8.88;2.90;;;21.40;56.90;;;;;;5094040;28;20485;-57
2021/04/16 04:31:25;;;;;;;9.00;2.90;;;21.40;56.90;;;;;;5065426;28;20028;-57
2021/04/16 04:33:51;;;;;;;5.72;2.92;;;21.40;56.90;;;;;;5056436;28;20048;-57
2021/04/16 04:36:17;;;;;;;6.60;2.30;;;21.40;57.10;;;;;;5072660;28;20024;-62
2021/04/16 04:38:43;;;;;;;6.95;2.95;;;21.40;57.00;;;;;;5074277;28;20021;-62
2021/04/16 04:41:09;;;;;;;8.20;2.20;;;21.40;57.00;;;;;;5074053;28;20056;-62
2021/04/16 04:43:35;;;;;;;8.60;2.35;;;21.40;57.00;;;;;;5056253;28;20363;-62
2021/04/16 04:46:01;;;;;;;8.27;2.50;;;21.40;57.00;;;;;;5074234;28;20081;-62
2021/04/16 04:48:27;;;;;;;4.88;2.40;;;21.40;57.00;;;;;;5073875;28;20093;-62
2021/04/16 04:50:53;;;;;;;10.73;3.05;;;21.40;57.10;;;;;;5074572;28;20020;-62
2021/04/16 04:53:19;;;;;;;4.78;2.13;;;21.40;57.10;;;;;;5074387;28;20025;-62
2021/04/16 04:55:45;;;;;;;6.63;2.90;;;21.40;57.10;;;;;;5056515;28;20135;-62
2021/04/16 04:58:11;;;;;;;9.48;3.03;;;21.40;57.10;;;;;;5074242;28;20035;-62
2021/04/16 05:00:37;;;;;;;8.57;2.85;;;21.30;57.10;;;;;;5073933;28;20091;-62
2021/04/16 05:03:03;;;;;;;9.52;3.05;;;21.40;57.20;;;;;;5074450;28;20107;-62
2021/04/16 05:05:29;;;;;;;6.97;2.40;;;21.30;57.10;;;;;;5073356;28;20036;-62
2021/04/16 05:07:55;;;;;;;7.88;3.25;;;21.30;57.10;;;;;;5094272;28;20054;-62
2021/04/16 05:10:22;;;;;;;6.85;2.85;;;21.30;57.20;;;;;;5077759;28;20024;-62
2021/04/16 05:12:48;;;;;;;6.53;2.80;;;21.30;57.20;;;;;;5073924;28;20029;-62
2021/04/16 05:15:15;;;;;;;11.02;3.30;;;21.30;57.20;;;;;;5073816;28;20025;-62
2021/04/16 05:17:41;;;;;;;8.68;3.22;;;21.30;57.20;;;;;;5071868;28;20024;-63
2021/04/16 05:20:09;;;;;;;7.95;2.65;;;21.30;57.10;;;;;;5073713;28;20035;-62
2021/04/16 05:22:35;;;;;;;6.25;2.72;;;21.30;57.10;;;;;;5073904;28;20033;-62
2021/04/16 05:25:01;;;;;;;8.90;3.17;;;21.30;57.20;;;;;;5055837;28;20070;-57
2021/04/16 05:27:29;;;;;;;9.10;3.17;;;21.30;57.10;;;;;;5074104;28;20039;-57
2021/04/16 05:29:55;;;;;;;9.60;3.15;;;21.30;57.20;;;;;;5073553;28;20316;-57
2021/04/16 05:32:21;;;;;;;5.30;2.55;;;21.30;57.20;;;;;;5077593;28;20488;-57
2021/04/16 05:34:47;;;;;;;5.30;2.85;;;21.30;57.20;;;;;;5094062;28;20373;-58
2021/04/16 05:37:14;;;;;;;7.60;2.45;;;21.30;57.20;;;;;;5093973;28;20019;-57
2021/04/16 05:39:41;;;;;;;6.60;2.60;;;21.30;57.20;;;;;;5093979;28;20020;-57
2021/04/16 05:42:08;;;;;;;7.55;3.15;;;21.30;57.30;;;;;;5093701;28;20020;-57
2021/04/16 05:44:34;;;;;;;8.07;2.47;;;21.30;57.30;;;;;;5093897;28;20496;-58
2021/04/16 05:47:00;;;;;;;5.72;2.80;;;21.30;57.30;;;;;;5093336;28;20020;-57
2021/04/16 05:49:26;;;;;;;10.77;3.47;;;21.30;57.30;;;;;;5093898;28;20032;-58
2021/04/16 05:51:55;;;;;;;7.70;3.15;;;21.30;57.30;;;;;;5093531;28;20024;-63
2021/04/16 05:54:21;;;;;;;7.20;2.75;;;21.30;57.30;;;;;;5093327;28;20146;-62
2021/04/16 05:56:47;;;;;;;7.38;2.97;;;21.30;57.30;;;;;;5092909;28;20031;-62
2021/04/16 05:59:13;;;;;;;6.43;2.67;;;21.30;57.30;;;;;;5075268;28;20373;-63
2021/04/16 06:01:39;;;;;;;6.18;2.53;;;21.30;57.30;;;;;;5074969;28;20130;-62
2021/04/16 06:04:05;;;;;;;7.05;3.20;;;21.30;57.30;;;;;;5094225;28;20032;-62
2021/04/16 06:06:31;;;;;;;6.93;3.22;;;21.30;57.20;;;;;;5069617;28;20378;-62
2021/04/16 06:08:57;;;;;;;7.13;2.67;;;21.30;57.30;;;;;;5092255;28;20028;-62
2021/04/16 06:11:25;;;;;;;10.07;2.90;;;21.30;57.30;;;;;;5092476;28;20040;-62
2021/04/16 06:13:51;;;;;;;9.63;2.88;;;21.30;57.20;;;;;;5092838;28;20428;-62
2021/04/16 06:16:17;;;;;;;6.85;2.95;;;21.20;57.20;;;;;;5092527;28;20024;-63
2021/04/16 06:18:43;;;;;;;6.60;2.70;;;21.30;57.20;;;;;;5092982;28;20561;-62
2021/04/16 06:21:11;;;;;;;5.32;2.63;;;21.30;57.20;;;;;;5092181;28;20016;-62
2021/04/16 06:23:37;;;;;;;4.55;2.85;;;21.30;57.30;;;;;;5092002;28;20085;-63
2021/04/16 06:26:03;;;;;;;5.90;2.65;;;21.30;57.20;;;;;;5074515;28;20036;-62
2021/04/16 06:28:29;;;;;;;3.75;2.13;;;21.30;57.20;;;;;;5092483;28;20633;-62
2021/04/16 06:30:55;;;;;;;6.22;2.42;;;21.30;57.20;;;;;;5092238;28;20751;-62
2021/04/16 06:33:25;;;;;;;7.53;2.50;;;21.30;57.20;;;;;;5092177;28;20517;-62
2021/04/16 06:35:57;;;;;;;445.77;402.27;;;21.30;57.20;;;;;;5091228;28;20036;-66
2021/04/16 06:38:30;;;;;;;147.43;132.32;;;21.30;57.30;;;;;;5099920;28;20085;-62
2021/04/16 06:40:58;;;;;;;46.28;41.13;;;21.30;57.40;;;;;;5106607;28;20058;-62
2021/04/16 06:43:30;;;;;;;82.63;74.00;;;21.30;57.30;;;;;;5091854;28;20028;-62
2021/04/16 06:45:59;;;;;;;92.85;83.07;;;21.30;57.40;;;;;;5091940;28;20032;-62
2021/04/16 06:48:26;;;;;;;89.00;79.65;;;21.40;57.50;;;;;;5074696;28;20782;-62
2021/04/16 06:50:57;;;;;;;75.07;67.18;;;21.30;57.50;;;;;;5091945;28;20415;-61
2021/04/16 06:53:54;;;;;;;67.75;60.53;;;21.30;57.50;;;;;;5091806;28;20028;-63
2021/04/16 06:56:32;;;;;;;58.97;52.45;;;21.30;57.50;;;;;;5075127;28;20032;-57
2021/04/16 06:59:03;;;;;;;62.67;55.03;;;21.30;57.50;;;;;;5089018;28;20036;-56
2021/04/16 07:01:48;;;;;;;58.80;50.47;;;21.30;58.00;;;;;;5092464;28;20115;-56
2021/04/16 07:04:38;;;;;;;75.55;66.75;;;21.40;57.60;;;;;;5086851;28;20021;-63
2021/04/16 07:07:39;;;;;;;64.93;58.05;;;21.40;57.70;;;;;;5052622;28;20681;-63
2021/04/16 07:10:17;;;;;;;;;;;21.40;57.60;;;;;;5069605;28;20024;-62
2021/04/16 07:12:45;;;;;;;55.17;49.13;;;21.40;57.60;;;;;;5061756;28;20388;-62
2021/04/16 07:15:25;;;;;;;55.28;47.65;;;21.50;57.30;;;;;;5090946;28;20153;-63
2021/04/16 07:17:52;;;;;;;43.10;38.43;;;21.50;57.40;;;;;;5071137;28;20072;-63
2021/04/16 07:20:23;;;;;;;35.08;29.45;;;21.40;57.30;;;;;;5090547;28;20253;-63
2021/04/16 07:22:55;;;;;;;28.58;25.10;;;21.40;57.20;;;;;;5071981;28;20028;-63
2021/04/16 07:25:57;;;;;;;31.55;25.85;;;21.40;57.20;;;;;;5090474;28;20103;-63
2021/04/16 07:28:44;;;;;;;23.85;21.13;;;21.40;57.30;;;;;;5071058;28;20085;-58
2021/04/16 07:31:36;;;;;;;26.67;19.88;;;21.40;57.40;;;;;;5056712;28;20520;-58
2021/04/16 07:34:04;;;;;;;21.63;18.35;;;21.40;57.40;;;;;;5080386;28;20040;-58
2021/04/16 07:36:33;;;;;;;22.17;18.02;;;21.40;57.40;;;;;;5073974;28;20031;-58
2021/04/16 07:39:27;;;;;;;24.75;16.60;;;21.40;57.50;;;;;;5074205;28;20377;-58
2021/04/16 07:42:17;;;;;;;17.02;13.48;;;21.40;57.60;;;;;;5091518;28;20024;-57
2021/04/16 07:45:08;;;;;;;22.35;13.85;;;21.40;57.60;;;;;;5091892;28;20059;-58
2021/04/16 07:47:35;;;;;;;18.15;12.27;;;21.40;57.70;;;;;;5073270;28;20036;-57
2021/04/16 07:50:07;;;;;;;18.02;11.05;;;21.40;57.70;;;;;;5073939;28;20057;-59
2021/04/16 07:52:40;;;;;;;14.57;9.95;;;21.40;57.70;;;;;;5093703;28;20058;-59
2021/04/16 07:55:13;;;;;;;17.00;10.52;;;21.40;57.80;;;;;;5091998;28;20085;-58
2021/04/16 07:57:42;;;;;;;14.50;9.38;;;21.40;57.80;;;;;;5091371;28;20028;-59
2021/04/16 08:00:24;;;;;;;13.57;6.95;;;21.40;57.80;;;;;;5092210;28;20101;-59
2021/04/16 08:03:13;;;;;;;10.57;7.75;;;21.40;57.80;;;;;;5073714;28;20045;-58
2021/04/16 08:05:51;;;;;;;13.10;6.32;;;21.40;57.90;;;;;;5091941;28;20036;-58
2021/04/16 08:08:17;;;;;;;10.32;6.65;;;21.40;57.90;;;;;;5090228;28;20367;-59
2021/04/16 08:10:45;;;;;;;11.90;6.20;;;21.50;57.90;;;;;;5074144;28;20118;-58
2021/04/16 08:13:30;;;;;;;13.98;6.40;;;21.50;57.80;;;;;;5095217;28;20097;-59
2021/04/16 08:16:13;;;;;;;8.73;6.13;;;21.50;57.90;;;;;;5077147;28;20059;-59
2021/04/16 08:18:42;;;;;;;9.93;6.30;;;21.50;57.80;;;;;;5094721;28;20384;-58
2021/04/16 08:21:16;;;;;;;8.38;6.13;;;21.50;57.70;;;;;;5087249;28;20024;-58
2021/04/16 08:24:02;;;;;;;14.05;6.07;;;21.60;57.70;;;;;;5079355;28;20033;-59
2021/04/16 08:26:39;;;;;;;13.63;6.30;;;21.60;57.70;;;;;;5059935;28;20378;-59
2021/04/16 08:29:30;;;;;;;12.02;6.60;;;21.60;57.60;;;;;;5094215;28;20508;-66
2021/04/16 08:32:22;;;;;;;9.82;5.57;;;21.60;57.50;;;;;;5094168;28;20021;-67
2021/04/16 08:34:59;;;;;;;11.40;6.05;;;21.60;57.50;;;;;;5073766;28;20036;-66
2021/04/16 08:37:30;;;;;;;9.25;5.75;;;21.60;57.40;;;;;;5073734;28;20423;-66
2021/04/16 08:39:56;;;;;;;8.75;5.65;;;21.70;57.40;;;;;;5074179;28;20535;-61
2021/04/16 08:42:29;;;;;;;8.25;5.45;;;21.70;57.40;;;;;;5071961;28;20024;-60
2021/04/16 08:45:09;;;;;;;10.50;5.20;;;21.70;57.50;;;;;;5059953;28;20432;-59
2021/04/16 08:48:02;;;;;;;8.82;4.57;;;21.70;57.50;;;;;;5089598;28;20104;-67
2021/04/16 08:50:34;;;;;;;9.45;5.00;;;21.70;57.50;;;;;;5076159;28;20477;-64
2021/04/16 08:53:02;;;;;;;12.00;4.78;;;21.70;57.40;;;;;;5090436;28;20486;-67
2021/04/16 08:55:40;;;;;;;14.20;5.15;;;21.70;57.50;;;;;;5093697;28;20674;-58
2021/04/16 08:58:33;;;;;;;7.13;4.72;;;21.70;57.70;;;;;;5073637;28;20102;-57
2021/04/16 09:01:08;;;;;;;9.43;4.50;;;21.70;57.60;;;;;;5076196;28;20020;-56
2021/04/16 09:03:52;;;;;;;6.43;3.88;;;21.70;57.60;;;;;;5093867;28;20024;-56
2021/04/16 09:06:26;;;;;;;8.70;3.88;;;21.70;57.60;;;;;;5094211;28;20020;-56
2021/04/16 09:08:54;;;;;;;4.68;3.25;;;21.80;57.60;;;;;;5093711;28;20031;-58
2021/04/16 09:11:42;;;;;;;5.63;3.80;;;21.80;57.60;;;;;;5093718;28;20462;-57
2021/04/16 09:14:23;;;;;;;6.35;3.58;;;21.80;57.60;;;;;;5096676;28;20366;-58
2021/04/16 09:16:55;;;;;;;7.35;3.80;;;21.80;57.50;;;;;;5097031;28;20111;-58
2021/04/16 09:19:27;;;;;;;6.80;3.70;;;21.80;57.40;;;;;;5075736;28;20382;-58
2021/04/16 09:22:05;;;;;;;7.25;3.60;;;21.80;57.40;;;;;;5092117;28;20463;-58
2021/04/16 09:24:53;;;;;;;6.57;3.47;;;21.80;57.30;;;;;;5076252;28;20032;-57
2021/04/16 09:27:31;;;;;;;8.50;4.00;;;21.80;57.30;;;;;;5094945;28;20032;-58
2021/04/16 09:29:59;;;;;;;6.18;3.28;;;21.80;57.30;;;;;;5093301;28;20036;-57
2021/04/16 09:32:38;;;;;;;7.13;3.47;;;21.80;57.20;;;;;;5092950;28;20039;-57
2021/04/16 09:35:07;;;;;;;7.85;3.92;;;21.80;57.20;;;;;;5091746;28;20116;-58
2021/04/16 09:37:40;;;;;;;6.68;2.97;;;21.80;57.20;;;;;;5093128;28;20485;-58
2021/04/16 09:40:15;;;;;;;4.35;2.88;;;21.80;57.10;;;;;;5093703;28;20059;-58
2021/04/16 09:42:44;;;;;;;7.28;3.15;;;21.90;57.10;;;;;;5093445;28;20024;-58
2021/04/16 09:45:28;;;;;;;7.15;3.35;;;21.90;57.10;;;;;;5093515;28;20081;-58
2021/04/16 09:48:04;;;;;;;12.10;10.05;;;21.80;57.10;;;;;;5094533;28;20148;-58
2021/04/16 09:51:01;;;;;;;18.70;11.02;;;21.80;57.00;;;;;;5074854;28;20123;-58
2021/04/16 09:53:32;;;;;;;18.15;12.55;;;21.80;57.10;;;;;;5035382;28;20058;-58
2021/04/16 09:55:59;;;;;;;14.43;11.65;;;21.90;57.00;;;;;;5074834;28;20042;-57
2021/04/16 09:58:31;;;;;;;22.23;14.82;;;21.90;57.00;;;;;;5074643;28;20028;-57
2021/04/16 10:00:57;;;;;;;19.15;14.77;;;21.80;57.00;;;;;;5092358;28;20016;-58
2021/04/16 10:03:32;;;;;;;22.27;15.40;;;21.80;57.50;;;;;;5074701;28;20509;-58
2021/04/16 10:06:17;;;;;;;18.75;13.57;;;21.80;57.10;;;;;;5092658;28;20483;-58
2021/04/16 10:08:45;;;;;;;16.88;13.00;;;21.80;57.00;;;;;;5074775;28;20028;-58
2021/04/16 10:11:13;;;;;;;14.55;12.35;;;21.80;57.10;;;;;;5092988;28;20020;-58
2021/04/16 10:13:40;;;;;;;15.77;11.88;;;21.80;57.10;;;;;;5074681;28;20426;-58
2021/04/16 10:16:23;;;;;;;17.17;11.80;;;21.80;57.20;;;;;;5091991;28;20031;-58
2021/04/16 10:18:50;;;;;;;18.15;12.43;;;21.80;57.20;;;;;;5092933;28;20028;-58
2021/04/16 10:21:16;;;;;;;15.18;10.68;;;21.80;57.20;;;;;;5074977;28;20024;-58
2021/04/16 10:23:49;;;;;;;23.92;10.77;;;21.90;57.30;;;;;;5091440;28;20077;-58
2021/04/16 12:38:41;;;;;;;45.08;35.08;;;23.40;55.70;;;;;;5076798;28;20047;-57
2021/04/16 12:41:12;;;;;;;42.85;37.88;;;23.50;55.50;;;;;;5075875;28;20050;-69
2021/04/16 12:43:39;;;;;;;38.22;33.80;;;23.70;54.90;;;;;;5076142;28;20028;-69
2021/04/16 12:46:08;;;;;;;36.78;32.80;;;23.70;54.50;;;;;;5093812;28;20071;-69
2021/04/16 12:48:35;;;;;;;33.60;29.23;;;23.80;54.20;;;;;;5075858;28;20101;-68
2021/04/16 12:51:01;;;;;;;32.75;28.42;;;23.90;54.30;;;;;;5093369;28;20738;-68
2021/04/16 12:53:27;;;;;;;32.50;27.15;;;23.90;54.00;;;;;;5075697;28;20047;-68
2021/04/16 12:55:53;;;;;;;28.73;24.60;;;24.00;53.90;;;;;;5075250;28;20031;-67
2021/04/16 12:58:24;;;;;;;26.27;22.70;;;24.00;53.80;;;;;;5092486;28;20024;-70
2021/04/16 13:00:50;;;;;;;25.63;20.92;;;24.10;53.50;;;;;;5076112;28;20082;-69
2021/04/16 13:03:25;;;;;;;21.90;18.90;;;24.20;53.70;;;;;;5093995;28;20836;-68
2021/04/16 13:05:51;;;;;;;21.52;17.20;;;24.30;53.40;;;;;;5093388;28;20036;-69
2021/04/16 13:08:18;;;;;;;15.88;13.63;;;24.40;53.20;;;;;;5075148;28;20026;-69
2021/04/16 13:10:47;;;;;;;12.27;9.43;;;24.50;52.90;;;;;;5074371;28;20058;-68
2021/04/16 13:13:14;;;;;;;12.63;8.55;;;24.70;52.80;;;;;;5075525;28;20111;-68
2021/04/16 13:15:40;;;;;;;15.05;10.63;;;24.90;52.50;;;;;;5075488;28;20071;-69
2021/04/16 13:18:37;;;;;;;14.90;11.68;;;25.00;52.30;;;;;;5061275;28;20104;-68
2021/04/16 13:21:07;;;;;;;21.80;12.73;;;25.30;52.50;;;;;;5028245;28;20041;-68
2021/04/16 13:23:33;;;;;;;;;;;25.50;51.20;;;;;;5029097;28;20022;-68
2021/04/16 13:26:01;;;;;;;46.40;39.92;;;25.80;53.10;;;;;;5030552;28;19915;-68
2021/04/16 13:28:27;;;;;;;41.70;35.70;;;26.10;50.90;;;;;;5031205;28;20041;-69
2021/04/16 13:30:54;;;;;;;43.83;39.20;;;26.40;50.10;;;;;;5029873;28;20099;-68
2021/04/16 13:33:20;;;;;;;37.55;33.80;;;26.50;49.30;;;;;;5031396;28;20103;-58
2021/04/16 13:35:54;;;;;;;38.20;34.30;;;26.70;49.30;;;;;;5031349;28;20103;-58
2021/04/16 13:38:27;;;;;;;34.92;31.15;;;26.80;48.80;;;;;;5014174;28;20044;-58
2021/04/16 13:40:55;;;;;;;30.20;27.02;;;26.90;48.20;;;;;;5013484;28;20033;-58
2021/04/16 13:43:22;;;;;;;29.15;24.73;;;27.10;48.10;;;;;;5003435;28;20017;-58
2021/04/16 13:45:51;;;;;;;21.20;18.92;;;27.20;47.80;;;;;;4998905;28;20049;-58
2021/04/16 13:48:17;;;;;;;31.23;28.02;;;27.30;47.70;;;;;;5029453;28;20040;-59
2021/04/16 13:50:44;;;;;;;28.88;24.95;;;27.40;47.50;;;;;;5031206;28;20087;-58
2021/04/16 13:53:12;;;;;;;24.25;19.13;;;27.50;47.20;;;;;;5024329;28;20167;-58
2021/04/16 13:55:38;;;;;;;20.20;18.05;;;27.50;46.70;;;;;;5010281;28;20060;-59
2021/04/16 13:58:05;;;;;;;20.77;18.58;;;27.50;46.50;;;;;;5062750;28;20063;-59
2021/04/16 14:00:34;;;;;;;19.48;17.45;;;27.50;46.20;;;;;;5074671;28;20032;-58
2021/04/16 14:03:23;;;;;;;16.70;14.85;;;27.40;46.00;;;;;;5073360;28;20024;-59
2021/04/16 14:05:52;;;;;;;20.77;11.85;;;27.30;45.80;;;;;;5058183;28;20109;-58
2021/04/16 14:08:40;;;;;;;15.27;11.95;;;27.30;45.70;;;;;;5091844;28;20433;-59
2021/04/16 14:11:07;;;;;;;21.42;14.15;;;27.20;46.20;;;;;;5074184;28;20024;-58
2021/04/16 14:13:35;;;;;;;15.45;12.20;;;27.10;46.10;;;;;;5092132;28;20046;-59
2021/04/16 14:16:05;;;;;;;12.82;11.18;;;27.00;45.90;;;;;;5092729;28;20028;-58
2021/04/16 14:18:36;;;;;;;14.52;10.95;;;26.90;45.80;;;;;;5083071;28;20059;-58
2021/04/16 14:21:04;;;;;;;14.60;11.20;;;26.80;46.00;;;;;;5088601;28;20024;-59
2021/04/16 14:23:31;;;;;;;13.45;11.38;;;26.80;46.20;;;;;;5091481;28;20020;-58
2021/04/16 14:25:57;;;;;;;15.27;12.05;;;26.70;46.20;;;;;;5057562;28;20032;-58
2021/04/16 14:28:24;;;;;;;19.73;17.73;;;26.70;46.10;;;;;;5091792;28;20076;-59
2021/04/16 14:30:51;;;;;;;17.65;13.48;;;26.60;46.00;;;;;;5061676;28;20024;-58
2021/04/16 14:33:22;;;;;;;16.92;13.00;;;26.50;45.90;;;;;;5091118;28;20390;-58
2021/04/16 14:35:48;;;;;;;17.98;12.50;;;26.40;45.80;;;;;;5090904;28;20043;-58
2021/04/16 14:38:17;;;;;;;13.10;10.77;;;26.30;46.10;;;;;;5090416;28;20570;-59
2021/04/16 14:40:43;;;;;;;18.15;12.27;;;26.20;45.80;;;;;;5085701;28;20126;-58
2021/04/16 14:43:09;;;;;;;13.55;10.30;;;26.10;46.10;;;;;;5090807;28;20094;-58
2021/04/16 14:45:42;;;;;;;17.45;10.52;;;26.00;46.10;;;;;;5085703;28;20050;-58
2021/04/16 14:48:09;;;;;;;16.95;12.30;;;25.90;46.00;;;;;;5077945;28;20130;-57
2021/04/16 14:50:35;;;;;;;14.18;12.70;;;25.80;46.30;;;;;;5072849;28;20031;-58
2021/04/16 14:53:14;;;;;;;13.57;11.07;;;25.80;46.50;;;;;;5073062;28;20028;-58
2021/04/16 14:55:41;;;;;;;10.45;6.60;;;25.70;46.30;;;;;;5073516;28;20054;-58
2021/04/16 14:58:09;;;;;;;14.27;6.20;;;25.70;46.30;;;;;;5072633;28;20028;-57
2021/04/16 15:00:36;;;;;;;9.85;6.70;;;25.60;46.00;;;;;;5091206;28;20027;-58
2021/04/16 15:03:04;;;;;;;13.55;7.88;;;25.50;46.10;;;;;;5091911;28;20024;-58
2021/04/16 15:05:30;;;;;;;7.95;5.88;;;25.50;46.40;;;;;;5073605;28;20078;-59
2021/04/16 15:08:06;;;;;;;9.45;5.80;;;25.40;46.40;;;;;;5091421;28;20016;-60